createdAt,value
2022-12-20T00:01:14.517Z,103023.13
2022-12-20T00:03:41.830Z,103012.97
2022-12-20T00:06:08.748Z,103004.91
2022-12-20T00:08:36.529Z,103006.69
2022-12-20T00:11:05.222Z,102999.97
2022-12-20T00:13:33.462Z,103004.50
2022-12-20T00:16:10.680Z,102995.13
2022-12-20T00:18:38.627Z,103001.31
2022-12-20T00:21:07.736Z,102995.41
2022-12-20T00:23:35.467Z,103001.31
2022-12-20T00:26:03.643Z,102987.63
2022-12-20T00:28:30.901Z,102985.75
2022-12-20T00:30:59.119Z,102991.06
2022-12-20T00:33:26.605Z,102991.41
2022-12-20T00:35:56.384Z,102983.72
2022-12-20T00:38:24.645Z,102984.72
2022-12-20T00:41:10.011Z,102987.53
2022-12-20T00:43:38.320Z,102983.03
2022-12-20T00:46:06.113Z,102984.72
2022-12-20T00:48:33.669Z,102984.78
2022-12-20T00:51:02.614Z,102974.66
2022-12-20T00:53:30.101Z,102979.84
2022-12-20T00:55:57.412Z,102980.66
2022-12-20T00:58:25.013Z,102987.16
2022-12-20T01:00:56.521Z,102992.41
2022-12-20T01:03:25.122Z,102982.69
2022-12-20T01:05:58.259Z,102990.25
2022-12-20T01:08:27.390Z,102988.50
2022-12-20T01:11:00.205Z,102990.19
2022-12-20T01:13:27.521Z,102984.72
2022-12-20T01:15:54.337Z,102983.84
2022-12-20T01:18:21.270Z,102979.66
2022-12-20T01:20:48.042Z,102988.31
2022-12-20T01:23:14.998Z,102981.34
2022-12-20T01:25:41.722Z,102985.69
2022-12-20T01:28:08.553Z,102980.75
2022-12-20T01:30:35.307Z,102983.19
2022-12-20T01:33:02.069Z,102975.44
2022-12-20T01:35:28.806Z,102979.94
2022-12-20T01:37:55.571Z,102977.84
2022-12-20T01:40:22.309Z,102970.06
2022-12-20T01:42:49.096Z,102967.59
2022-12-20T01:45:27.434Z,102958.06
2022-12-20T01:47:55.320Z,102970.22
2022-12-20T01:50:22.226Z,102964.28
2022-12-20T01:52:49.453Z,102951.50
2022-12-20T01:55:21.628Z,102956.88
2022-12-20T01:57:59.902Z,102957.06
2022-12-20T02:00:27.099Z,102953.63
2022-12-20T02:02:55.650Z,102951.75
2022-12-20T02:05:23.725Z,102947.44
2022-12-20T02:07:53.527Z,102944.78
2022-12-20T02:10:24.247Z,102937.03
2022-12-20T02:12:59.259Z,102938.78
2022-12-20T02:15:52.289Z,102938.69
2022-12-20T02:18:22.311Z,102930.28
2022-12-20T02:21:03.964Z,102937.22
2022-12-20T02:24:18.798Z,102926.22
2022-12-20T02:27:19.694Z,102927.84
2022-12-20T02:30:21.843Z,102924.22
2022-12-20T02:32:55.328Z,102921.38
2022-12-20T02:35:28.586Z,102915.84
2022-12-20T02:38:01.340Z,102917.59
2022-12-20T02:40:40.346Z,102910.00
2022-12-20T02:43:29.216Z,102906.13
2022-12-20T02:45:58.818Z,102905.94
2022-12-20T02:48:31.124Z,102905.84
2022-12-20T02:51:00.437Z,102904.16
2022-12-20T02:53:29.338Z,102890.41
2022-12-20T02:56:05.652Z,102890.59
2022-12-20T02:58:48.370Z,102896.66
2022-12-20T03:01:23.723Z,102899.50
2022-12-20T03:03:52.951Z,102892.69
2022-12-20T03:06:19.797Z,102894.25
2022-12-20T03:08:47.325Z,102895.88
2022-12-20T03:11:14.528Z,102894.25
2022-12-20T03:13:41.338Z,102894.25
2022-12-20T03:16:10.985Z,102890.50
2022-12-20T03:18:38.931Z,102891.66
2022-12-20T03:21:05.835Z,102895.00
2022-12-20T03:23:33.203Z,102888.03
2022-12-20T03:25:59.993Z,102888.81
2022-12-20T03:28:46.281Z,102892.44
2022-12-20T03:31:18.156Z,102893.50
2022-12-20T03:33:50.681Z,102894.56
2022-12-20T03:36:23.383Z,102884.16
2022-12-20T03:38:54.810Z,102886.69
2022-12-20T03:41:24.056Z,102882.00
2022-12-20T03:43:53.099Z,102877.53
2022-12-20T03:46:21.401Z,102874.91
2022-12-20T03:48:48.347Z,102888.03
2022-12-20T03:51:15.375Z,102887.41
2022-12-20T03:53:42.127Z,102885.13
2022-12-20T03:56:10.959Z,102887.75
2022-12-20T03:58:39.457Z,102887.94
2022-12-20T04:01:25.086Z,102888.09
2022-12-20T04:03:53.130Z,102891.38
2022-12-20T04:06:20.717Z,102899.22
2022-12-20T04:08:48.098Z,102898.63
2022-12-20T04:11:22.392Z,102896.06
2022-12-20T04:14:08.235Z,102891.72
2022-12-20T04:16:36.209Z,102889.25
2022-12-20T04:19:03.083Z,102887.56
2022-12-20T04:21:36.320Z,102888.53
2022-12-20T04:24:05.197Z,102891.16
2022-12-20T04:26:43.508Z,102889.22
2022-12-20T04:29:11.751Z,102888.69
2022-12-20T04:31:40.247Z,102894.41
2022-12-20T04:34:07.222Z,102891.34
2022-12-20T04:36:34.989Z,102891.63
2022-12-20T04:39:05.153Z,102884.19
2022-12-20T04:41:42.808Z,102882.63
2022-12-20T04:44:12.755Z,102878.69
2022-12-20T04:46:39.646Z,102876.06
2022-12-20T04:49:11.471Z,102876.78
2022-12-20T04:51:41.188Z,102866.78
2022-12-20T04:54:07.985Z,102867.69
2022-12-20T04:56:40.419Z,102863.34
2022-12-20T04:59:11.721Z,102864.31
2022-12-20T05:01:41.426Z,102865.03
2022-12-20T05:04:08.806Z,102865.81
2022-12-20T05:06:37.357Z,102864.91
2022-12-20T05:09:04.660Z,102864.03
2022-12-20T05:11:33.010Z,102860.53
2022-12-20T05:14:00.917Z,102858.59
2022-12-20T05:16:27.697Z,102861.31
2022-12-20T05:18:54.723Z,102855.41
2022-12-20T05:21:40.320Z,102858.84
2022-12-20T05:24:28.499Z,102856.28
2022-12-20T05:27:14.588Z,102856.81
2022-12-20T05:29:41.790Z,102850.72
2022-12-20T05:32:09.791Z,102852.84
2022-12-20T05:34:39.783Z,102853.63
2022-12-20T05:37:07.172Z,102845.00
2022-12-20T05:39:36.142Z,102843.31
2022-12-20T05:42:08.458Z,102844.19
2022-12-20T05:44:35.715Z,102846.97
2022-12-20T05:47:02.699Z,102843.56
2022-12-20T05:49:33.751Z,102834.13
2022-12-20T05:52:03.423Z,102839.13
2022-12-20T05:54:39.378Z,102837.38
2022-12-20T05:57:14.776Z,102841.00
2022-12-20T05:59:42.589Z,102844.44
2022-12-20T06:02:22.826Z,102845.34
2022-12-20T06:04:55.749Z,102837.72
2022-12-20T06:07:24.280Z,102840.03
2022-12-20T06:09:56.632Z,102838.91
2022-12-20T06:12:28.018Z,102848.50
2022-12-20T06:14:54.935Z,102837.03
2022-12-20T06:17:22.082Z,102833.59
2022-12-20T06:19:52.064Z,102835.47
2022-12-20T06:22:19.005Z,102833.78
2022-12-20T06:24:51.701Z,102827.78
2022-12-20T06:27:23.414Z,102838.09
2022-12-20T06:29:59.837Z,102841.63
2022-12-20T06:32:34.281Z,102837.47
2022-12-20T06:35:01.169Z,102841.97
2022-12-20T06:37:28.515Z,102839.41
2022-12-20T06:39:55.342Z,102847.97
2022-12-20T06:42:22.880Z,102846.22
2022-12-20T06:44:50.696Z,102841.09
2022-12-20T06:47:20.534Z,102847.09
2022-12-20T06:49:47.407Z,102845.34
2022-12-20T06:52:21.872Z,102842.84
2022-12-20T06:54:51.397Z,102840.22
2022-12-20T06:57:20.215Z,102837.66
2022-12-20T06:59:48.250Z,102841.78
2022-12-20T07:02:15.432Z,102843.38
2022-12-20T07:04:42.453Z,102852.84
2022-12-20T07:07:09.209Z,102842.44
2022-12-20T07:09:37.958Z,102841.47
2022-12-20T07:12:05.395Z,102850.03
2022-12-20T07:14:32.175Z,102848.59
2022-12-20T07:16:59.161Z,102853.03
2022-12-20T07:19:26.098Z,102846.97
2022-12-20T07:21:53.017Z,102843.91
2022-12-20T07:24:19.726Z,102841.47
2022-12-20T07:26:46.568Z,102841.47
2022-12-20T07:29:15.900Z,102840.59
2022-12-20T07:31:43.649Z,102844.91
2022-12-20T07:34:11.046Z,102837.31
2022-12-20T07:36:37.961Z,102843.38
2022-12-20T07:39:04.706Z,102839.31
2022-12-20T07:41:31.704Z,102831.63
2022-12-20T07:43:59.793Z,102841.97
2022-12-20T07:46:27.176Z,102843.19
2022-12-20T07:48:55.288Z,102840.00
2022-12-20T07:51:26.778Z,102847.03
2022-12-20T07:54:05.114Z,102841.09
2022-12-20T07:56:40.921Z,102845.53
2022-12-20T07:59:11.581Z,102842.31
2022-12-20T08:01:39.485Z,102849.28
2022-12-20T08:04:13.146Z,102836.41
2022-12-20T08:06:42.096Z,102842.47
2022-12-20T08:09:12.662Z,102838.50
2022-12-20T08:11:43.891Z,102843.63
2022-12-20T08:14:11.434Z,102839.13
2022-12-20T08:16:38.422Z,102842.47
2022-12-20T08:19:05.236Z,102848.75
2022-12-20T08:21:32.017Z,102853.97
2022-12-20T08:23:58.808Z,102853.88
2022-12-20T08:26:25.837Z,102853.09
2022-12-20T08:28:52.750Z,102849.72
2022-12-20T08:31:19.621Z,102857.56
2022-12-20T08:33:46.561Z,102857.63
2022-12-20T08:36:14.546Z,102851.72
2022-12-20T08:38:41.691Z,102850.84
2022-12-20T08:41:12.628Z,102860.19
2022-12-20T08:43:40.104Z,102855.97
2022-12-20T08:46:07.733Z,102855.16
2022-12-20T08:48:34.768Z,102851.72
2022-12-20T08:51:04.970Z,102850.03
2022-12-20T08:53:33.357Z,102857.91
2022-12-20T08:56:21.227Z,102851.34
2022-12-20T08:58:51.076Z,102856.47
2022-12-20T09:01:24.314Z,102860.78
2022-12-20T09:03:51.360Z,102865.91
2022-12-20T09:06:21.058Z,102862.88
2022-12-20T09:08:48.487Z,102853.50
2022-12-20T09:11:18.579Z,102859.41
2022-12-20T09:13:47.156Z,102862.88
2022-12-20T09:16:15.996Z,102855.09
2022-12-20T09:18:43.314Z,102855.16
2022-12-20T09:21:11.511Z,102850.84
2022-12-20T09:23:38.973Z,102852.69
2022-12-20T09:26:16.735Z,102858.16
2022-12-20T09:28:46.945Z,102860.06
2022-12-20T09:31:16.159Z,102858.31
2022-12-20T09:33:43.515Z,102854.88
2022-12-20T09:36:17.410Z,102863.34
2022-12-20T09:38:45.212Z,102859.03
2022-12-20T09:41:41.711Z,102852.22
2022-12-20T09:44:40.326Z,102847.41
2022-12-20T09:47:14.687Z,102844.94
2022-12-20T09:49:45.783Z,102846.69
2022-12-20T09:52:40.117Z,102841.41
2022-12-20T09:55:32.057Z,102833.84
2022-12-20T09:58:30.801Z,102844.22
2022-12-20T10:00:58.325Z,102834.72
2022-12-20T10:03:33.825Z,102828.88
2022-12-20T10:06:16.091Z,102827.44
2022-12-20T10:08:50.255Z,102824.06
2022-12-20T10:11:26.195Z,102814.69
2022-12-20T10:14:16.504Z,102822.56
2022-12-20T10:16:47.818Z,102811.69
2022-12-20T10:19:35.130Z,102811.59
2022-12-20T10:22:14.883Z,102809.03
2022-12-20T10:24:48.139Z,102793.63
2022-12-20T10:27:18.789Z,102803.09
2022-12-20T10:29:48.247Z,102802.59
2022-12-20T10:32:21.515Z,102802.81
2022-12-20T10:34:57.986Z,102804.25
2022-12-20T10:37:25.053Z,102795.47
2022-12-20T10:39:52.801Z,102796.19
2022-12-20T10:42:27.723Z,102794.50
2022-12-20T10:44:56.117Z,102794.63
2022-12-20T10:47:34.583Z,102794.69
2022-12-20T10:50:14.933Z,102793.91
2022-12-20T10:52:42.841Z,102789.72
2022-12-20T10:55:37.302Z,102788.41
2022-12-20T10:58:25.595Z,102788.09
2022-12-20T11:01:12.821Z,102784.03
2022-12-20T11:03:58.366Z,102777.78
2022-12-20T11:06:30.625Z,102781.69
2022-12-20T11:09:24.519Z,102773.06
2022-12-20T11:12:02.429Z,102775.28
2022-12-20T11:14:38.319Z,102773.84
2022-12-20T11:17:46.664Z,102771.56
2022-12-20T11:20:38.336Z,102766.19
2022-12-20T11:23:17.251Z,102766.81
2022-12-20T11:25:56.249Z,102758.22
2022-12-20T11:29:10.455Z,102748.31
2022-12-20T11:31:46.625Z,102748.78
2022-12-20T11:34:22.057Z,102739.91
2022-12-20T11:37:00.999Z,102744.91
2022-12-20T11:39:38.929Z,102743.16
2022-12-20T11:42:17.512Z,102733.00
2022-12-20T11:45:10.345Z,102730.41
2022-12-20T11:47:51.112Z,102727.28
2022-12-20T11:50:26.795Z,102724.56
2022-12-20T11:53:03.022Z,102726.03
2022-12-20T11:55:41.858Z,102724.22
2022-12-20T11:58:19.335Z,102720.50
2022-12-20T12:01:05.351Z,102726.38
2022-12-20T12:03:38.125Z,102726.19
2022-12-20T12:06:11.066Z,102722.78
2022-12-20T12:08:38.178Z,102709.88
2022-12-20T12:11:39.938Z,102706.56
2022-12-20T12:14:04.863Z,102709.44
2022-12-20T12:16:42.916Z,102709.47
2022-12-20T12:19:12.800Z,102713.78
2022-12-20T12:21:48.147Z,102705.16
2022-12-20T12:24:35.068Z,102687.09
2022-12-20T12:27:02.846Z,102684.53
2022-12-20T12:29:32.425Z,102682.09
2022-12-20T12:32:13.163Z,102686.63
2022-12-20T12:34:42.749Z,102677.34
2022-12-20T12:37:30.731Z,102685.34
2022-12-20T12:40:03.577Z,102665.56
2022-12-20T12:42:42.621Z,102670.47
2022-12-20T12:45:31.631Z,102674.16
2022-12-20T12:48:01.659Z,102669.63
2022-12-20T12:50:32.723Z,102671.91
2022-12-20T12:53:14.914Z,102668.28
2022-12-20T12:56:12.837Z,102662.28
2022-12-20T12:59:09.297Z,102664.25
2022-12-20T13:01:56.284Z,102654.50
2022-12-20T13:04:26.467Z,102662.50
2022-12-20T13:07:01.036Z,102655.56
2022-12-20T13:09:28.016Z,102660.66
2022-12-20T13:12:02.077Z,102661.41
2022-12-20T13:14:30.217Z,102660.78
2022-12-20T13:17:12.112Z,102664.50
2022-12-20T13:19:50.864Z,102655.28
2022-12-20T13:22:17.659Z,102651.63
2022-12-20T13:24:59.475Z,102648.69
2022-12-20T13:27:39.493Z,102647.97
2022-12-20T13:30:12.128Z,102645.56
2022-12-20T13:32:48.273Z,102649.41
2022-12-20T13:35:28.136Z,102655.78
2022-12-20T13:38:06.802Z,102649.41
2022-12-20T13:40:45.789Z,102643.34
2022-12-20T13:43:28.081Z,102646.56
2022-12-20T13:46:09.183Z,102645.59
2022-12-20T13:48:57.105Z,102641.03
2022-12-20T13:51:26.671Z,102638.59
2022-12-20T13:54:01.826Z,102633.00
2022-12-20T13:56:28.933Z,102633.38
2022-12-20T13:58:57.760Z,102625.63
2022-12-20T14:01:28.768Z,102625.69
2022-12-20T14:03:56.105Z,102625.53
2022-12-20T14:06:28.121Z,102626.19
2022-12-20T14:08:54.990Z,102628.94
2022-12-20T14:11:26.818Z,102624.13
2022-12-20T14:14:02.415Z,102634.38
2022-12-20T14:16:31.999Z,102630.50
2022-12-20T14:19:07.661Z,102629.28
2022-12-20T14:21:42.603Z,102626.41
2022-12-20T14:24:20.048Z,102627.84
2022-12-20T14:26:55.503Z,102622.50
2022-12-20T14:29:31.082Z,102629.13
2022-12-20T14:31:58.077Z,102626.25
2022-12-20T14:34:30.037Z,102620.03
2022-12-20T14:37:24.788Z,102620.53
2022-12-20T14:39:57.161Z,102615.59
2022-12-20T14:42:29.849Z,102613.56
2022-12-20T14:45:15.631Z,102614.41
2022-12-20T14:47:56.130Z,102616.75
2022-12-20T14:50:29.143Z,102620.03
2022-12-20T14:52:56.822Z,102618.16
2022-12-20T14:55:30.706Z,102618.91
2022-12-20T14:57:58.255Z,102616.34
2022-12-20T15:00:30.727Z,102612.00
2022-12-20T15:02:59.548Z,102612.78
2022-12-20T15:05:35.863Z,102617.09
2022-12-20T15:08:21.279Z,102610.25
2022-12-20T15:11:12.501Z,102609.50
2022-12-20T15:13:48.918Z,102600.84
2022-12-20T15:16:28.177Z,102618.03
2022-12-20T15:18:56.218Z,102618.78
2022-12-20T15:21:31.433Z,102617.78
2022-12-20T15:24:02.453Z,102616.72
2022-12-20T15:26:31.163Z,102616.59
2022-12-20T15:28:58.025Z,102611.31
2022-12-20T15:31:32.975Z,102603.44
2022-12-20T15:34:02.516Z,102609.41
2022-12-20T15:36:30.276Z,102610.06
2022-12-20T15:39:14.934Z,102610.00
2022-12-20T15:41:46.374Z,102602.16
2022-12-20T15:44:17.200Z,102610.66
2022-12-20T15:46:44.574Z,102609.66
2022-12-20T15:49:23.167Z,102606.97
2022-12-20T15:51:53.692Z,102606.72
2022-12-20T15:54:24.242Z,102613.66
2022-12-20T15:56:51.586Z,102611.84
2022-12-20T15:59:57.480Z,102597.91
2022-12-20T16:02:32.553Z,102594.41
2022-12-20T16:04:59.846Z,102589.94
2022-12-20T16:07:27.942Z,102596.84
2022-12-20T16:09:55.093Z,102593.13
2022-12-20T16:12:34.989Z,102591.38
2022-12-20T16:15:01.908Z,102589.41
2022-12-20T16:17:28.816Z,102593.66
2022-12-20T16:19:55.888Z,102603.94
2022-12-20T16:22:23.940Z,102605.56
2022-12-20T16:24:51.860Z,102602.94
2022-12-20T16:27:19.592Z,102602.94
2022-12-20T16:29:46.904Z,102600.97
2022-12-20T16:32:24.358Z,102587.00
2022-12-20T16:34:52.463Z,102603.69
2022-12-20T16:37:19.566Z,102602.72
2022-12-20T16:39:46.453Z,102605.16
2022-12-20T16:42:18.632Z,102606.94
2022-12-20T16:44:46.355Z,102608.47
2022-12-20T16:47:14.573Z,102615.38
2022-12-20T16:49:51.165Z,102613.53
2022-12-20T16:52:22.122Z,102610.16
2022-12-20T16:54:50.164Z,102613.44
2022-12-20T16:57:17.219Z,102608.31
2022-12-20T16:59:46.791Z,102607.53
2022-12-20T17:02:29.688Z,102608.25
2022-12-20T17:04:57.125Z,102610.69
2022-12-20T17:07:24.608Z,102604.59
2022-12-20T17:10:10.198Z,102612.16
2022-12-20T17:12:37.221Z,102611.16
2022-12-20T17:15:04.996Z,102608.41
2022-12-20T17:17:32.031Z,102616.00
2022-12-20T17:19:59.025Z,102606.56
2022-12-20T17:25:30.753Z,102607.31
2022-12-20T17:27:59.993Z,102606.44
2022-12-20T17:30:27.067Z,102604.38
2022-12-20T17:32:54.725Z,102597.34
2022-12-20T17:35:28.378Z,102604.97
2022-12-20T17:37:57.436Z,102602.94
2022-12-20T17:40:26.820Z,102603.81
2022-12-20T17:42:54.880Z,102607.09
2022-12-20T17:45:25.589Z,102606.16
2022-12-20T17:47:53.797Z,102600.13
2022-12-20T17:50:21.445Z,102601.03
2022-12-20T17:52:48.660Z,102601.81
2022-12-20T17:55:24.855Z,102602.56
2022-12-20T17:57:54.042Z,102598.19
2022-12-20T18:00:41.187Z,102600.53
2022-12-20T18:03:30.150Z,102600.38
2022-12-20T18:06:02.304Z,102604.53
2022-12-20T18:08:32.831Z,102602.88
2022-12-20T18:10:59.593Z,102608.72
2022-12-20T18:13:26.400Z,102607.88
2022-12-20T18:15:53.260Z,102608.88
2022-12-20T18:18:20.106Z,102608.72
2022-12-20T18:20:46.879Z,102606.88
2022-12-20T18:23:13.986Z,102615.19
2022-12-20T18:25:41.122Z,102615.06
2022-12-20T18:28:08.127Z,102612.59
2022-12-20T18:30:36.400Z,102616.16
2022-12-20T18:33:05.786Z,102606.94
2022-12-20T18:35:32.630Z,102605.19
2022-12-20T18:37:59.712Z,102605.44
2022-12-20T18:40:26.620Z,102607.19
2022-12-20T18:42:53.726Z,102605.50
2022-12-20T18:45:20.544Z,102607.41
2022-12-20T18:47:47.506Z,102604.84
2022-12-20T18:50:14.364Z,102598.81
2022-12-20T18:52:43.244Z,102598.91
2022-12-20T18:55:13.960Z,102602.41
2022-12-20T18:57:42.006Z,102593.56
2022-12-20T19:00:11.602Z,102590.34
2022-12-20T19:02:39.186Z,102590.25
2022-12-20T19:05:06.714Z,102594.72
2022-12-20T19:07:33.616Z,102593.97
2022-12-20T19:10:00.494Z,102585.28
2022-12-20T19:12:27.335Z,102590.50
2022-12-20T19:14:55.448Z,102589.44
2022-12-20T19:17:22.351Z,102592.81
2022-12-20T19:19:51.685Z,102591.94
2022-12-20T19:22:18.750Z,102581.53
2022-12-20T19:24:45.573Z,102588.50
2022-12-20T19:27:12.493Z,102586.81
2022-12-20T19:29:39.342Z,102578.81
2022-12-20T19:32:06.177Z,102578.09
2022-12-20T19:34:33.059Z,102560.34
2022-12-20T19:37:00.228Z,102559.56
2022-12-20T19:39:28.975Z,102574.03
2022-12-20T19:44:44.320Z,102559.56
2022-12-20T19:47:11.318Z,102564.75
2022-12-20T19:49:38.223Z,102568.00
2022-12-20T19:52:06.983Z,102557.78
2022-12-20T19:54:35.146Z,102556.91
2022-12-20T19:57:02.189Z,102556.19
2022-12-20T19:59:39.860Z,102557.94
2022-12-20T20:02:13.573Z,102554.56
2022-12-20T20:04:41.865Z,102552.00
2022-12-20T20:07:14.201Z,102517.69
2022-12-20T20:09:47.293Z,102550.09
2022-12-20T20:12:14.819Z,102547.63
2022-12-20T20:14:46.190Z,102542.97
2022-12-20T20:17:13.665Z,102534.91
2022-12-20T20:19:42.662Z,102550.91
2022-12-20T20:22:10.982Z,102557.59
2022-12-20T20:24:37.967Z,102553.97
2022-12-20T20:27:05.073Z,102560.72
2022-12-20T20:29:33.254Z,102555.56
2022-12-20T20:32:00.695Z,102556.22
2022-12-20T20:34:27.642Z,102558.88
2022-12-20T20:36:54.834Z,102560.41
2022-12-20T20:39:27.430Z,102551.34
2022-12-20T20:41:54.669Z,102558.81
2022-12-20T20:44:24.468Z,102547.47
2022-12-20T20:46:51.802Z,102552.88
2022-12-20T20:49:19.951Z,102547.91
2022-12-20T20:51:47.430Z,102534.13
2022-12-20T20:54:14.571Z,102548.91
2022-12-20T20:56:41.803Z,102536.81
2022-12-20T20:59:13.471Z,102541.16
2022-12-20T21:01:44.943Z,102542.75
2022-12-20T21:04:11.909Z,102544.47
2022-12-20T21:06:42.023Z,102547.06
2022-12-20T21:09:20.328Z,102549.72
2022-12-20T21:11:48.776Z,102532.38
2022-12-20T21:14:16.492Z,102541.03
2022-12-20T21:16:43.839Z,102536.53
2022-12-20T21:19:15.042Z,102541.75
2022-12-20T21:21:43.031Z,102541.06
2022-12-20T21:24:10.244Z,102535.94
2022-12-20T21:26:37.993Z,102544.59
2022-12-20T21:29:06.565Z,102535.06
2022-12-20T21:31:33.881Z,102534.06
2022-12-20T21:34:01.480Z,102520.28
2022-12-20T21:36:29.714Z,102520.81
2022-12-20T21:39:01.686Z,102510.16
2022-12-20T21:41:31.085Z,102509.16
2022-12-20T21:43:59.944Z,102511.91
2022-12-20T21:46:30.162Z,102533.78
2022-12-20T21:49:10.847Z,102529.44
2022-12-20T21:51:58.062Z,102522.69
2022-12-20T21:54:25.728Z,102513.31
2022-12-20T21:56:57.568Z,102517.84
2022-12-20T21:59:24.593Z,102517.47
2022-12-20T22:01:52.851Z,102503.88
2022-12-20T22:04:23.316Z,102499.59
2022-12-20T22:06:50.430Z,102501.34
2022-12-20T22:09:17.425Z,102504.88
2022-12-20T22:11:48.646Z,102502.38
2022-12-20T22:14:16.051Z,102493.88
2022-12-20T22:16:43.998Z,102493.88
2022-12-20T22:19:13.813Z,102493.94
2022-12-20T22:21:40.877Z,102490.63
2022-12-20T22:24:08.997Z,102500.16
2022-12-20T22:26:49.134Z,102495.03
2022-12-20T22:29:20.208Z,102492.47
2022-12-20T22:31:47.197Z,102488.16
2022-12-20T22:34:15.515Z,102483.03
2022-12-20T22:36:42.436Z,102480.47
2022-12-20T22:39:10.683Z,102475.13
2022-12-20T22:41:37.626Z,102472.56
2022-12-20T22:44:07.498Z,102473.56
2022-12-20T22:46:39.311Z,102473.66
2022-12-20T22:49:15.774Z,102472.06
2022-12-20T22:51:42.566Z,102467.00
2022-12-20T22:54:12.104Z,102455.03
2022-12-20T22:56:39.046Z,102455.00
2022-12-20T22:59:08.638Z,102455.13
2022-12-20T23:01:37.660Z,102449.03
2022-12-20T23:04:05.004Z,102447.19
2022-12-20T23:06:32.058Z,102442.03
2022-12-20T23:08:59.427Z,102439.47
2022-12-20T23:11:48.579Z,102443.03
2022-12-20T23:14:36.492Z,102439.03
2022-12-20T23:17:08.325Z,102439.75
2022-12-20T23:19:54.312Z,102429.69
2022-12-20T23:22:38.137Z,102434.91
2022-12-20T23:25:13.840Z,102424.41
2022-12-20T23:27:42.500Z,102421.53
2022-12-20T23:30:12.208Z,102418.75
2022-12-20T23:32:39.118Z,102414.47
2022-12-20T23:35:12.229Z,102417.00
2022-12-20T23:37:40.208Z,102416.91
2022-12-20T23:40:08.480Z,102411.66
2022-12-20T23:42:35.390Z,102413.63
2022-12-20T23:45:02.582Z,102408.44
2022-12-20T23:47:30.794Z,102407.47
2022-12-20T23:49:57.957Z,102400.34
2022-12-20T23:52:24.956Z,102408.97
2022-12-20T23:54:51.765Z,102404.31
2022-12-20T23:57:18.675Z,102410.19
2022-12-20T23:59:45.497Z,102407.56
